Terminal Aerodrome Forecast
Issued by NWS

Home | Current Version | Previous Version | Text Only | Print | Product List | Glossary On
Versions: 1 2 3 4 5 6 7 8 9 10 11 12 13 14 15 16 17 18 19 20 21 22 23 24 25 26 27 28 29 30 31 32 33 34 35
000
FTUS43 KGLD 030334 AAB
TAFMCK
TAF AMD
KMCK 030334Z 0304/0324 33020G28KT P6SM SCT025 BKN120
      TEMPO 0304/0306 BKN025
     FM030600 32014G20KT P6SM OVC070
     FM031100 30011KT P6SM SCT120
     FM031400 29008KT P6SM BKN080
     FM032000 29010KT P6SM SCT150
     FM032200 29009KT P6SM SCT110
     FM032300 29009KT P6SM SCT110=

USA.gov is the U.S. government's official web portal to all federal, state and local government web resources and services.